Muban Kan Kheha Haeng Chat Lampang, Thailand

2:12 PM +07 on August 17, 2017 (GMT +0700)
Tambon Pichai | | Change Station

Elev 787 ft 18.30 °N, 99.52 °E | Updated 11 seconds ago

Mostly Cloudy
Mostly Cloudy
101.8 °F
Feels Like 112 °F
N
0.0
Wind Variable Wind from SE
Gusts 0.7 mph

Today
High -- | Low -- °F
--% Chance of Precip.
Yesterday
High -- | Low -- °F
Precip. -- in
Pressure 29.68 in
Visibility 6.2 miles
Clouds Mostly Cloudy 2500 ft
Mostly Cloudy 10000 ft
Heat Index 112 °F
Dew Point 72 °F
Humidity 38%
Rainfall 0.00 in
Snow Depth Not available.
6:04 AM 6:47 PM
Waning Crescent, 25% visible
METAR VTCL 170700Z 18006KT 9999 BKN025 BKN100 32/22 Q1005
Pressure 29.68 in
Visibility 6.2 miles
Clouds Mostly Cloudy 2500 ft
Mostly Cloudy 10000 ft
Heat Index 112 °F
Dew Point 72 °F
Humidity 38%
Rainfall 0.00 in
Snow Depth Not available.
6:04 AM 6:47 PM
Waning Crescent, 25% visible
METAR VTCL 170700Z 18006KT 9999 BKN025 BKN100 32/22 Q1005

Get Severe Weather Alerts

Thanks for signing up!

Be on the lookout for a verification email in your inbox.

You'll start receiving the daily forecast at 6 AM.

×

10-Day Weather Forecast

No radar image for this location.
×

Almanac

Astronomy

Aug. 17, 2017 Rise Set
Actual Time
Civil Twilight
Nautical Twilight
Astronomical Twilight
Moon
Length of Visible Light
Length of Day
Tomorrow will be .
, % of the Moon is Illuminated

Today's Extremes

Country Highs Country Lows

Community

WunderPhotos

Category 6

Welcome to Category 6. This is the collective home for Weather Underground's featured writeups by Dr. Jeff Masters (right), Bob Henson (left), Chris Burt, and other regular contributors.

Nearby

Air Quality

  Air Quality AQ Index Pollutant
Not available.

Snow Depth

Station Depth Elevation

Earthquake Activity

City Distance Mag. Time & Date
Minimum magnitude displayed is 2.5.

Coastal Water Temperatures

Place Temperature

Stations

Nearby Weather Stations

Station Location Temp. Windchill Dew Point Humidity Wind Precip. Elev Updated Type